createdAt,value
2023-12-19T06:17:19.409Z,6.05
2023-12-19T06:19:48.602Z,6.10
2023-12-19T06:22:17.673Z,6.12
2023-12-19T06:24:46.992Z,6.14
2023-12-19T06:27:17.470Z,6.16
2023-12-19T06:29:47.522Z,6.17
2023-12-19T06:32:16.751Z,6.18
2023-12-19T06:34:46.011Z,6.19
2023-12-19T06:37:15.012Z,6.22
2023-12-19T06:39:44.861Z,6.24
2023-12-19T06:42:14.082Z,6.26
2023-12-19T06:44:43.333Z,6.29
2023-12-19T06:47:13.034Z,6.31
2023-12-19T06:49:44.061Z,6.33
2023-12-19T06:52:13.115Z,6.34
2023-12-19T06:54:42.111Z,6.35
2023-12-19T06:57:11.154Z,6.37
2023-12-19T06:59:40.206Z,6.39
2023-12-19T07:02:09.137Z,6.40
2023-12-19T07:04:38.242Z,6.43
2023-12-19T07:07:07.409Z,6.45
2023-12-19T07:09:38.991Z,6.48
2023-12-19T07:12:08.521Z,6.52
2023-12-19T07:14:38.649Z,6.56
2023-12-19T07:17:07.857Z,6.59
2023-12-19T07:19:37.480Z,6.60
2023-12-19T07:22:06.601Z,6.62
2023-12-19T07:24:35.849Z,6.64
2023-12-19T07:27:06.144Z,6.63
2023-12-19T07:29:35.032Z,6.65
2023-12-19T07:32:06.293Z,6.64
2023-12-19T07:34:35.397Z,6.64
2023-12-19T07:37:04.860Z,6.61
2023-12-19T07:39:34.261Z,6.59
2023-12-19T07:42:03.439Z,6.58
2023-12-19T07:44:32.500Z,6.59
2023-12-19T07:47:01.362Z,6.59
2023-12-19T07:49:30.332Z,6.60
2023-12-19T07:51:59.325Z,6.62
2023-12-19T07:54:28.389Z,6.62
2023-12-19T07:56:57.346Z,6.63
2023-12-19T07:59:26.345Z,6.65
2023-12-19T08:01:55.397Z,6.67
2023-12-19T08:04:24.594Z,6.68
2023-12-19T08:06:53.599Z,6.71
2023-12-19T08:09:22.645Z,6.73
2023-12-19T08:11:51.616Z,6.77
2023-12-19T08:14:20.616Z,6.78
2023-12-19T08:16:49.979Z,6.82
2023-12-19T08:19:19.214Z,6.85
2023-12-19T08:21:55.673Z,6.87
2023-12-19T08:24:25.022Z,6.90
2023-12-19T08:26:54.210Z,6.90
2023-12-19T08:29:23.185Z,6.93
2023-12-19T08:31:52.100Z,6.96
2023-12-19T08:34:21.193Z,6.99
2023-12-19T08:36:50.410Z,7.04
2023-12-19T08:39:19.404Z,7.10
2023-12-19T08:41:48.468Z,7.14
2023-12-19T08:44:17.555Z,7.17
2023-12-19T08:46:46.487Z,7.18
2023-12-19T08:49:15.783Z,7.19
2023-12-19T08:51:51.104Z,7.21
2023-12-19T08:54:20.382Z,7.23
2023-12-19T08:56:49.372Z,7.25
2023-12-19T08:59:18.469Z,7.25
2023-12-19T09:01:47.468Z,7.26
2023-12-19T09:04:16.818Z,7.24
2023-12-19T09:06:45.897Z,7.25
2023-12-19T09:09:15.412Z,7.22
2023-12-19T09:11:44.396Z,7.25
2023-12-19T09:14:13.758Z,7.29
2023-12-19T09:16:44.212Z,7.30
2023-12-19T09:19:15.803Z,7.33
2023-12-19T09:21:45.058Z,7.36
2023-12-19T09:24:14.156Z,7.40
2023-12-19T09:26:43.137Z,7.44
2023-12-19T09:29:12.142Z,7.49
2023-12-19T09:31:41.381Z,7.53
2023-12-19T09:34:14.392Z,7.59
2023-12-19T09:36:53.238Z,7.63
2023-12-19T09:39:26.153Z,7.66
2023-12-19T09:41:55.336Z,7.67
2023-12-19T09:44:26.419Z,7.70
2023-12-19T09:46:55.980Z,7.70
2023-12-19T09:49:27.142Z,7.69
2023-12-19T09:51:57.766Z,7.69
2023-12-19T09:54:27.318Z,7.66
2023-12-19T09:56:59.324Z,7.62
2023-12-19T09:59:29.768Z,7.61
2023-12-19T10:01:58.893Z,7.61
2023-12-19T10:04:29.036Z,7.58
2023-12-19T10:07:01.911Z,7.59
2023-12-19T10:09:31.292Z,7.59
2023-12-19T10:12:13.867Z,7.62
2023-12-19T10:14:42.973Z,7.64
2023-12-19T10:17:16.316Z,7.67
2023-12-19T10:19:46.310Z,7.70
2023-12-19T10:22:21.077Z,7.75
2023-12-19T10:24:51.469Z,7.79
2023-12-19T10:27:23.291Z,7.82
2023-12-19T10:29:53.131Z,7.87
2023-12-19T10:32:22.100Z,7.86
2023-12-19T10:34:57.786Z,7.87
2023-12-19T10:37:39.894Z,7.88
2023-12-19T10:40:20.822Z,7.88
2023-12-19T10:42:57.624Z,7.92
2023-12-19T10:45:27.225Z,7.93
2023-12-19T10:47:56.338Z,7.97
2023-12-19T10:50:25.965Z,7.97
2023-12-19T10:53:01.353Z,7.97
2023-12-19T10:55:38.185Z,7.94
2023-12-19T10:58:07.738Z,7.95
2023-12-19T11:00:41.779Z,7.96
2023-12-19T11:03:24.828Z,7.95
2023-12-19T11:05:55.680Z,7.96
2023-12-19T11:08:27.521Z,7.95
2023-12-19T11:11:07.697Z,7.93
2023-12-19T11:13:37.445Z,7.89
2023-12-19T11:16:20.976Z,7.87
2023-12-19T11:19:05.538Z,7.84
2023-12-19T11:21:55.516Z,7.82
2023-12-19T11:24:46.750Z,7.80
2023-12-19T11:27:27.045Z,7.80
2023-12-19T11:29:57.668Z,7.83
2023-12-19T11:32:32.945Z,7.85
2023-12-19T11:35:09.396Z,7.91
2023-12-19T11:37:39.698Z,7.97
2023-12-19T11:40:11.630Z,8.02
2023-12-19T11:42:41.055Z,8.07
2023-12-19T11:45:19.670Z,8.08
2023-12-19T11:47:50.460Z,8.07
2023-12-19T11:50:42.045Z,8.06
2023-12-19T11:53:11.313Z,8.04
2023-12-19T11:55:40.302Z,8.02
2023-12-19T11:58:12.937Z,8.02
2023-12-19T12:00:44.795Z,8.03
2023-12-19T12:03:14.430Z,8.04
2023-12-19T12:05:43.795Z,8.05
2023-12-19T12:08:15.822Z,8.07
2023-12-19T12:10:58.735Z,8.10
2023-12-19T12:13:29.272Z,8.12
2023-12-19T12:15:59.337Z,8.14
2023-12-19T12:18:31.899Z,8.15
2023-12-19T12:21:08.940Z,8.15
2023-12-19T12:23:38.065Z,8.15
2023-12-19T12:26:07.831Z,8.15
2023-12-19T12:28:38.329Z,8.13
2023-12-19T12:31:08.565Z,8.15
2023-12-19T12:33:38.348Z,8.14
2023-12-19T12:36:12.743Z,8.14
2023-12-19T12:38:41.813Z,8.13
2023-12-19T12:41:11.356Z,8.12
2023-12-19T12:43:45.744Z,8.11
2023-12-19T12:46:17.671Z,8.11
2023-12-19T12:48:52.989Z,8.09
2023-12-19T12:51:22.303Z,8.08
2023-12-19T12:53:58.821Z,8.05
2023-12-19T12:56:33.593Z,8.03
2023-12-19T12:59:09.020Z,8.03
2023-12-19T13:01:40.619Z,8.01
2023-12-19T13:04:10.863Z,8.04
2023-12-19T13:06:45.154Z,8.04
2023-12-19T13:09:16.328Z,8.06
2023-12-19T13:11:45.948Z,8.08
2023-12-19T13:14:16.179Z,8.08
2023-12-19T13:16:46.361Z,8.10
2023-12-19T13:19:16.524Z,8.11
2023-12-19T13:21:47.496Z,8.12
2023-12-19T13:24:19.178Z,8.12
2023-12-19T13:26:50.678Z,8.13
2023-12-19T13:29:20.789Z,8.14
2023-12-19T13:31:49.844Z,8.15
2023-12-19T13:34:18.845Z,8.16
2023-12-19T13:36:48.205Z,8.17
2023-12-19T13:39:21.554Z,8.20
2023-12-19T13:41:52.742Z,8.20
2023-12-19T13:44:22.428Z,8.22
2023-12-19T13:46:51.943Z,8.23
2023-12-19T13:49:21.160Z,8.24
2023-12-19T13:51:50.887Z,8.25
2023-12-19T13:54:21.850Z,8.25
2023-12-19T13:56:50.882Z,8.27
2023-12-19T13:59:20.201Z,8.28
2023-12-19T14:01:50.533Z,8.27
2023-12-19T14:04:22.297Z,8.31
2023-12-19T14:06:51.421Z,8.32
2023-12-19T14:09:20.874Z,8.33
2023-12-19T14:11:52.851Z,8.35
2023-12-19T14:14:21.831Z,8.37
2023-12-19T14:16:50.722Z,8.37
2023-12-19T14:19:19.947Z,8.38
2023-12-19T14:21:51.501Z,8.36
2023-12-19T14:24:20.596Z,8.36
2023-12-19T14:26:49.453Z,8.36
2023-12-19T14:29:18.967Z,8.36
2023-12-19T14:31:48.399Z,8.37
2023-12-19T14:34:17.594Z,8.38
2023-12-19T14:36:47.517Z,8.39
2023-12-19T14:39:16.924Z,8.40
2023-12-19T14:41:45.875Z,8.41
2023-12-19T14:44:14.768Z,8.43
2023-12-19T14:46:47.472Z,8.43
2023-12-19T14:49:17.267Z,8.45
2023-12-19T14:51:46.638Z,8.46
2023-12-19T14:54:15.860Z,8.48
2023-12-19T14:56:44.902Z,8.47
2023-12-19T14:59:14.268Z,8.49
2023-12-19T15:01:46.343Z,8.51
2023-12-19T15:04:15.575Z,8.52
2023-12-19T15:06:44.706Z,8.54
2023-12-19T15:09:13.729Z,8.54
2023-12-19T15:11:44.095Z,8.54
2023-12-19T15:14:15.293Z,8.55
2023-12-19T15:16:46.711Z,8.54
2023-12-19T15:19:15.774Z,8.54
2023-12-19T15:21:44.953Z,8.53
2023-12-19T15:24:14.039Z,8.54
2023-12-19T15:26:43.645Z,8.54
2023-12-19T15:29:16.001Z,8.52
2023-12-19T15:31:45.936Z,8.52
2023-12-19T15:34:17.020Z,8.52
2023-12-19T15:36:46.626Z,8.53
2023-12-19T15:39:15.714Z,8.53
2023-12-19T15:41:44.657Z,8.53
2023-12-19T15:44:14.014Z,8.54
2023-12-19T15:46:44.018Z,8.53
2023-12-19T15:49:16.869Z,8.52
2023-12-19T15:51:46.015Z,8.50
2023-12-19T15:54:19.561Z,8.50
2023-12-19T15:56:48.759Z,8.50
2023-12-19T15:59:19.189Z,8.49
2023-12-19T16:01:49.861Z,8.48
2023-12-19T16:04:19.164Z,8.46
2023-12-19T16:06:49.699Z,8.45
2023-12-19T16:09:18.848Z,8.44
2023-12-19T16:11:49.379Z,8.43
2023-12-19T16:14:18.314Z,8.42
2023-12-19T16:16:47.336Z,8.41
2023-12-19T16:19:16.470Z,8.38
2023-12-19T16:21:45.684Z,8.36
2023-12-19T16:24:15.264Z,8.33
2023-12-19T16:26:44.980Z,8.30
2023-12-19T16:29:13.972Z,8.29
2023-12-19T16:31:43.088Z,8.27
2023-12-19T16:34:12.176Z,8.24
2023-12-19T16:36:45.568Z,8.22
2023-12-19T16:39:14.565Z,8.19
2023-12-19T16:41:43.528Z,8.18
2023-12-19T16:44:13.876Z,8.16
2023-12-19T16:46:46.741Z,8.14
2023-12-19T16:49:17.621Z,8.13
2023-12-19T16:51:46.850Z,8.12
2023-12-19T16:54:16.621Z,8.11
2023-12-19T16:56:47.497Z,8.08
2023-12-19T16:59:18.483Z,8.05
2023-12-19T17:01:52.612Z,8.02
2023-12-19T17:04:21.824Z,8.01
2023-12-19T17:06:59.922Z,7.99
2023-12-19T17:09:30.132Z,7.98
2023-12-19T17:11:59.256Z,7.95
2023-12-19T17:14:28.143Z,7.96
2023-12-19T17:19:46.349Z,7.95
2023-12-19T17:22:15.846Z,7.94
2023-12-19T17:24:46.713Z,7.93
2023-12-19T17:27:17.811Z,7.94
2023-12-19T17:29:46.766Z,7.93
2023-12-19T17:32:15.674Z,7.91
2023-12-19T17:34:45.375Z,7.91
2023-12-19T17:37:14.668Z,7.90
2023-12-19T17:39:44.158Z,7.87
2023-12-19T17:42:13.342Z,7.81
2023-12-19T17:44:42.325Z,7.77
2023-12-19T17:47:11.247Z,7.72
2023-12-19T17:49:40.419Z,7.66
2023-12-19T17:52:10.735Z,7.60
2023-12-19T17:54:41.478Z,7.53
2023-12-19T17:57:11.292Z,7.44
2023-12-19T17:59:40.341Z,7.34
2023-12-19T18:02:09.948Z,7.25
2023-12-19T18:04:39.301Z,7.16
2023-12-19T18:07:08.935Z,7.10
2023-12-19T18:09:38.072Z,7.08
2023-12-19T18:12:08.186Z,7.01
2023-12-19T18:14:37.108Z,6.97
2023-12-19T18:17:06.000Z,6.94
2023-12-19T18:19:35.608Z,6.92
2023-12-19T18:22:05.164Z,6.94
2023-12-19T18:24:34.168Z,6.97
2023-12-19T18:27:05.550Z,6.98
2023-12-19T18:29:34.740Z,6.99
2023-12-19T18:32:04.097Z,6.98
2023-12-19T18:34:33.353Z,6.97
2023-12-19T18:37:02.764Z,6.95
2023-12-19T18:39:31.874Z,6.91
2023-12-19T18:42:00.818Z,6.91
2023-12-19T18:44:29.989Z,6.90
2023-12-19T18:46:58.992Z,6.94
2023-12-19T18:49:28.051Z,6.97
2023-12-19T18:51:58.988Z,6.95
2023-12-19T18:54:29.407Z,6.94
2023-12-19T18:56:58.456Z,6.93
2023-12-19T18:59:27.459Z,6.94
2023-12-19T19:01:56.559Z,6.95
2023-12-19T19:04:27.649Z,6.96
2023-12-19T19:06:57.629Z,6.98
2023-12-19T19:09:26.712Z,6.99
2023-12-19T19:11:55.910Z,7.02
2023-12-19T19:14:24.896Z,7.11
2023-12-19T19:16:53.902Z,7.17
2023-12-19T19:19:23.220Z,7.19
2023-12-19T19:21:52.272Z,7.20
2023-12-19T19:24:21.289Z,7.21
2023-12-19T19:26:51.177Z,7.23
2023-12-19T19:29:20.704Z,7.21
2023-12-19T19:31:49.998Z,7.17
2023-12-19T19:34:22.550Z,7.13
2023-12-19T19:36:52.741Z,7.08
2023-12-19T19:39:23.503Z,7.03
2023-12-19T19:41:52.463Z,6.99
2023-12-19T19:44:22.547Z,6.95
2023-12-19T19:46:52.754Z,6.91
2023-12-19T19:49:21.888Z,6.90
2023-12-19T19:51:51.488Z,6.90
2023-12-19T19:54:21.439Z,6.89
2023-12-19T19:56:50.429Z,6.85
2023-12-19T19:59:25.203Z,6.81
2023-12-19T20:01:56.745Z,6.81
2023-12-19T20:04:26.022Z,6.83
2023-12-19T20:06:56.818Z,6.83
2023-12-19T20:09:26.090Z,6.85
2023-12-19T20:11:55.084Z,6.85
2023-12-19T20:14:24.280Z,6.86
2023-12-19T20:16:53.278Z,6.86
2023-12-19T20:19:22.261Z,6.87
2023-12-19T20:21:51.243Z,6.86
2023-12-19T20:24:20.352Z,6.88
2023-12-19T20:26:49.770Z,6.90
2023-12-19T20:29:20.624Z,6.93
2023-12-19T20:31:49.691Z,6.98
2023-12-19T20:34:19.445Z,7.01
2023-12-19T20:36:48.752Z,7.03
2023-12-19T20:39:17.824Z,7.03
2023-12-19T20:41:46.911Z,7.04
2023-12-19T20:44:15.857Z,7.02
2023-12-19T20:46:45.290Z,7.00
2023-12-19T20:49:14.353Z,6.95
2023-12-19T20:51:43.627Z,6.92
2023-12-19T20:54:16.643Z,6.89
2023-12-19T20:56:48.506Z,6.85
2023-12-19T20:59:17.628Z,6.86
2023-12-19T21:01:46.907Z,6.86
2023-12-19T21:04:16.085Z,6.87
2023-12-19T21:06:46.712Z,6.84
2023-12-19T21:09:15.696Z,6.79
2023-12-19T21:11:44.663Z,6.76
2023-12-19T21:14:13.764Z,6.71
2023-12-19T21:16:58.013Z,6.70
2023-12-19T21:19:34.476Z,6.62
2023-12-19T21:22:04.008Z,6.62
2023-12-19T21:24:34.181Z,6.65
2023-12-19T21:27:03.750Z,6.63
2023-12-19T21:29:32.956Z,6.59
2023-12-19T21:32:01.974Z,6.57
2023-12-19T21:34:31.068Z,6.59
2023-12-19T21:37:00.240Z,6.59
2023-12-19T21:39:30.688Z,6.60
2023-12-19T21:42:00.086Z,6.62
2023-12-19T21:44:29.004Z,6.62
2023-12-19T21:46:58.115Z,6.66
2023-12-19T21:49:27.234Z,6.70
2023-12-19T21:51:56.314Z,6.68
2023-12-19T21:54:25.314Z,6.64
2023-12-19T21:56:54.524Z,6.63
2023-12-19T21:59:23.448Z,6.60
2023-12-19T22:01:52.603Z,6.56
2023-12-19T22:04:21.698Z,6.54
2023-12-19T22:06:50.895Z,6.55
2023-12-19T22:09:19.971Z,6.56
2023-12-19T22:11:50.921Z,6.60
2023-12-19T22:14:19.953Z,6.61
2023-12-19T22:16:48.932Z,6.55
2023-12-19T22:19:17.889Z,6.51
2023-12-19T22:21:46.953Z,6.46
2023-12-19T22:24:15.860Z,6.44
2023-12-19T22:26:44.877Z,6.44
2023-12-19T22:31:45.410Z,6.51
2023-12-19T22:34:14.588Z,6.49
2023-12-19T22:36:43.837Z,6.48
2023-12-19T22:39:13.153Z,6.44
2023-12-19T22:41:43.578Z,6.42
2023-12-19T22:44:12.564Z,6.39
2023-12-19T22:46:41.628Z,6.36
2023-12-19T22:49:10.727Z,6.37
2023-12-19T22:51:42.791Z,6.36
2023-12-19T22:54:11.769Z,6.35
2023-12-19T22:56:40.686Z,6.34
2023-12-19T22:59:09.567Z,6.32
2023-12-19T23:04:10.438Z,6.30
2023-12-19T23:06:39.422Z,6.29
2023-12-19T23:09:08.728Z,6.26
2023-12-19T23:11:37.909Z,6.29
2023-12-19T23:14:07.223Z,6.32
2023-12-19T23:16:36.653Z,6.31
2023-12-19T23:19:06.509Z,6.28
2023-12-19T23:21:35.578Z,6.26
2023-12-19T23:24:05.364Z,6.26
2023-12-19T23:26:34.504Z,6.26
2023-12-19T23:29:03.817Z,6.28
2023-12-19T23:31:39.355Z,6.33
2023-12-19T23:34:11.831Z,6.38
2023-12-19T23:36:41.113Z,6.41
2023-12-19T23:39:10.205Z,6.34
2023-12-19T23:41:39.262Z,6.33
2023-12-19T23:44:08.128Z,6.31
2023-12-19T23:46:36.959Z,6.31
2023-12-19T23:49:06.199Z,6.34
2023-12-19T23:51:35.264Z,6.39
2023-12-19T23:54:04.643Z,6.42
2023-12-19T23:56:33.677Z,6.43
2023-12-19T23:59:02.660Z,6.44
